Time;durP1;ratioP1;P1;durP2;ratioP2;P2;SDS_P1;SDS_P2;PMS_P1;PMS_P2;Temp;Humidity;BMP_temperature;BMP_pressure;BME280_temperature;BME280_humidity;BME280_pressure;Samples;Min_cycle;Max_cycle;Signal;HPM_P1;HPM_P2
2021/08/10 00:01:13;;;;;;;18.45;14.20;;;;;;;20.44;79.28;99226.00;5052367;28;20056;-64
2021/08/10 00:03:39;;;;;;;17.45;14.77;;;;;;;20.40;79.27;99223.13;5052122;28;20037;-63
2021/08/10 00:06:04;;;;;;;18.90;14.50;;;;;;;20.43;79.25;99227.13;5052334;28;20041;-63
2021/08/10 00:08:30;;;;;;;22.15;15.25;;;;;;;20.46;79.12;99229.19;5052278;28;20383;-63
2021/08/10 00:10:56;;;;;;;17.08;14.70;;;;;;;20.45;79.02;99227.63;5052117;28;20068;-63
2021/08/10 00:13:23;;;;;;;17.15;15.05;;;;;;;20.49;79.04;99220.50;5051575;28;20049;-63
2021/08/10 00:15:48;;;;;;;19.00;14.75;;;;;;;20.50;78.84;99214.03;5052046;28;20045;-63
2021/08/10 00:18:15;;;;;;;18.50;15.10;;;;;;;20.48;78.96;99204.69;5051919;28;20040;-62
2021/08/10 00:20:40;;;;;;;18.50;14.70;;;;;;;20.47;78.89;99197.69;5052063;28;20134;-63
2021/08/10 00:23:06;;;;;;;19.45;15.43;;;;;;;20.47;78.88;99213.84;5051509;28;20518;-64
2021/08/10 00:25:32;;;;;;;21.33;14.95;;;;;;;20.44;78.91;99212.53;5034261;28;20040;-63
2021/08/10 00:28:08;;;;;;;20.77;15.48;;;;;;;20.43;79.04;99214.44;5051207;28;20583;-63
2021/08/10 00:30:34;;;;;;;23.55;16.35;;;;;;;20.40;79.13;99209.69;5052269;28;20076;-63
2021/08/10 00:33:00;;;;;;;18.50;15.98;;;;;;;20.38;79.31;99208.38;5051621;28;20064;-62
2021/08/10 00:35:26;;;;;;;19.83;16.08;;;;;;;20.35;79.63;99203.63;5050679;28;20159;-64
2021/08/10 00:37:52;;;;;;;20.00;15.55;;;;;;;20.36;79.48;99203.31;5033425;28;20052;-64
2021/08/10 00:40:19;;;;;;;17.77;14.43;;;;;;;20.37;79.38;99201.44;5050621;28;20041;-63
2021/08/10 00:42:45;;;;;;;18.73;16.20;;;;;;;20.39;79.39;99196.53;5050385;28;20162;-63
2021/08/10 00:45:11;;;;;;;20.95;14.85;;;;;;;20.36;79.43;99197.94;5050377;28;20048;-61
2021/08/10 00:47:39;;;;;;;17.05;14.95;;;;;;;20.35;79.51;99204.44;5050251;28;20051;-63
2021/08/10 00:50:07;;;;;;;18.20;15.40;;;;;;;20.33;79.58;99195.88;5050353;28;20041;-62
2021/08/10 00:52:38;;;;;;;18.13;15.57;;;;;;;20.30;79.78;99196.47;5050149;28;20144;-63
2021/08/10 00:55:06;;;;;;;18.15;15.35;;;;;;;20.26;79.92;99186.63;5050281;28;20037;-64
2021/08/10 00:57:32;;;;;;;18.20;15.75;;;;;;;20.23;79.96;99189.94;5033457;28;20074;-62
2021/08/10 01:00:00;;;;;;;20.38;16.60;;;;;;;20.20;80.00;99192.13;5050260;28;20051;-64
2021/08/10 01:02:27;;;;;;;21.85;16.30;;;;;;;20.17;80.06;99203.50;5049605;28;20088;-64
2021/08/10 01:04:53;;;;;;;21.23;15.18;;;;;;;20.17;80.30;99197.31;5050014;28;20044;-63
2021/08/10 01:07:42;;;;;;;19.83;15.20;;;;;;;20.21;80.26;99203.69;5050044;28;20056;-64
2021/08/10 01:10:13;;;;;;;19.60;16.10;;;;;;;20.18;80.14;99197.03;5033864;28;20048;-63
2021/08/10 01:12:42;;;;;;;18.58;15.57;;;;;;;20.18;80.24;99188.97;5049898;28;20037;-64
2021/08/10 01:15:19;;;;;;;20.50;15.80;;;;;;;20.22;80.37;99191.03;5051543;28;20079;-63
2021/08/10 01:17:59;;;;;;;18.10;14.77;;;;;;;20.19;80.45;99189.75;5049879;28;20054;-62
2021/08/10 01:20:58;;;;;;;17.98;15.60;;;;;;;20.19;80.52;99192.44;5049095;28;20502;-63
2021/08/10 01:23:27;;;;;;;20.45;15.57;;;;;;;20.17;80.65;99195.41;5032753;28;20502;-63
2021/08/10 01:26:17;;;;;;;18.55;15.18;;;;;;;20.18;80.71;99191.66;5017005;28;20049;-63
2021/08/10 01:29:00;;;;;;;16.60;14.88;;;;;;;20.15;80.70;99202.22;5049892;28;20048;-63
2021/08/10 01:31:47;;;;;;;18.23;14.27;;;;;;;20.13;80.77;99199.84;5033610;28;20056;-63
2021/08/10 01:34:16;;;;;;;20.83;15.13;;;;;;;20.16;80.51;99196.53;5050051;28;20037;-63
2021/08/10 01:36:44;;;;;;;18.92;14.52;;;;;;;20.17;80.41;99208.09;5049779;28;20049;-63
2021/08/10 01:39:11;;;;;;;18.35;15.55;;;;;;;20.19;80.38;99193.22;5050901;28;20041;-63
2021/08/10 01:41:46;;;;;;;16.90;14.20;;;;;;;20.20;80.44;99191.31;5034439;28;20041;-63
2021/08/10 01:44:14;;;;;;;21.60;16.38;;;;;;;20.18;80.65;99190.84;5033205;28;20090;-63
2021/08/10 01:46:40;;;;;;;18.00;14.90;;;;;;;20.13;80.65;99197.13;5033023;28;20094;-63
2021/08/10 01:49:07;;;;;;;18.25;14.43;;;;;;;20.12;80.98;99192.88;5049311;28;20048;-62
2021/08/10 01:51:34;;;;;;;18.83;14.48;;;;;;;20.11;80.99;99188.56;5051263;28;20144;-63
2021/08/10 01:54:02;;;;;;;18.17;14.85;;;;;;;20.08;80.88;99199.94;5033354;28;20045;-63
2021/08/10 01:56:32;;;;;;;18.02;15.43;;;;;;;20.06;81.03;99195.97;5033789;28;20043;-61
2021/08/10 01:59:00;;;;;;;19.70;15.80;;;;;;;20.03;81.18;99196.56;5033127;28;20045;-62
2021/08/10 02:01:29;;;;;;;17.48;15.65;;;;;;;20.02;81.47;99198.47;5049450;28;20099;-60
2021/08/10 02:03:56;;;;;;;26.52;16.50;;;;;;;20.03;81.39;99196.56;5032774;28;20040;-62
2021/08/10 02:06:23;;;;;;;23.73;16.10;;;;;;;20.04;81.42;99198.97;5032845;28;20060;-63
2021/08/10 02:08:52;;;;;;;18.13;15.20;;;;;;;20.08;81.48;99194.56;5049349;28;20043;-63
2021/08/10 02:11:23;;;;;;;21.55;14.80;;;;;;;20.10;81.30;99192.38;5033144;28;20049;-62
2021/08/10 02:13:52;;;;;;;21.08;14.68;;;;;;;20.11;81.37;99188.56;5049663;28;20041;-63
2021/08/10 02:16:19;;;;;;;19.20;14.35;;;;;;;20.13;81.34;99197.13;5049620;28;20049;-62
2021/08/10 02:18:47;;;;;;;19.05;14.90;;;;;;;20.12;81.36;99203.63;5049344;28;20063;-65
2021/08/10 02:21:43;;;;;;;19.17;14.60;;;;;;;20.14;81.35;99203.31;5033830;28;20148;-63
2021/08/10 02:24:41;;;;;;;17.48;14.30;;;;;;;20.16;81.30;99214.56;5053058;28;20045;-64
2021/08/10 02:27:11;;;;;;;20.10;14.15;;;;;;;20.19;81.17;99216.66;5052820;28;20049;-63
2021/08/10 02:29:42;;;;;;;16.58;14.63;;;;;;;20.23;81.11;99206.06;5036437;28;20080;-62
2021/08/10 02:32:13;;;;;;;17.92;13.70;;;;;;;20.31;80.90;99208.81;5036531;28;20048;-62
2021/08/10 02:34:42;;;;;;;16.85;13.55;;;;;;;20.40;80.61;99207.00;5052845;28;20074;-62
2021/08/10 02:37:12;;;;;;;17.17;14.20;;;;;;;20.48;80.18;99210.06;5052587;28;20045;-63
2021/08/10 02:39:39;;;;;;;18.52;13.38;;;;;;;20.45;80.15;99210.69;5036657;28;20056;-64
2021/08/10 02:42:06;;;;;;;15.65;13.77;;;;;;;20.45;80.29;99214.16;5035629;28;20126;-64
2021/08/10 02:44:32;;;;;;;15.85;13.48;;;;;;;20.45;80.26;99216.06;5035969;28;20048;-63
2021/08/10 02:47:02;;;;;;;15.65;13.88;;;;;;;20.45;80.30;99203.38;5036443;28;20095;-62
2021/08/10 02:49:28;;;;;;;15.82;14.07;;;;;;;20.47;80.29;99213.84;5052598;28;20067;-64
2021/08/10 02:51:55;;;;;;;16.75;14.63;;;;;;;20.50;80.19;99207.84;5052286;28;20056;-64
2021/08/10 02:54:20;;;;;;;21.02;14.55;;;;;;;20.52;80.10;99202.94;5052339;28;20044;-64
2021/08/10 02:57:00;;;;;;;18.98;14.55;;;;;;;20.50;80.13;99200.56;5051975;28;20053;-62
2021/08/10 02:59:32;;;;;;;17.30;14.15;;;;;;;20.51;79.76;99201.38;5052323;28;20428;-64
2021/08/10 03:02:11;;;;;;;18.95;15.23;;;;;;;20.52;79.83;99195.69;5019077;28;20041;-64
2021/08/10 03:04:41;;;;;;;19.85;13.57;;;;;;;20.53;79.67;99199.16;5053635;28;20084;-64
2021/08/10 03:07:07;;;;;;;19.25;14.48;;;;;;;20.53;79.67;99202.69;5051705;28;20423;-63
2021/08/10 03:09:34;;;;;;;17.38;14.43;;;;;;;20.53;79.59;99197.28;5035542;28;20049;-63
2021/08/10 03:12:01;;;;;;;16.25;14.48;;;;;;;20.51;79.79;99204.06;5051890;28;20435;-64
2021/08/10 03:14:29;;;;;;;17.13;14.48;;;;;;;20.57;79.49;99200.97;5052120;28;20056;-64
2021/08/10 03:16:55;;;;;;;21.90;14.52;;;;;;;20.65;78.86;99202.13;5035298;28;20132;-63
2021/08/10 03:19:22;;;;;;;18.73;14.98;;;;;;;20.70;78.86;99204.66;5035302;28;20144;-64
2021/08/10 03:21:49;;;;;;;20.55;15.02;;;;;;;20.71;78.72;99200.88;5035522;28;20052;-63
2021/08/10 03:24:16;;;;;;;20.88;15.25;;;;;;;20.70;78.68;99206.56;5035202;28;20123;-63
2021/08/10 03:26:42;;;;;;;22.92;15.57;;;;;;;20.69;78.70;99202.28;5035276;28;20106;-63
2021/08/10 03:29:09;;;;;;;20.30;15.25;;;;;;;20.70;78.41;99207.34;5051774;28;20045;-64
2021/08/10 03:31:37;;;;;;;21.63;15.27;;;;;;;20.76;78.24;99202.63;5035092;28;20053;-63
2021/08/10 03:34:03;;;;;;;16.35;14.57;;;;;;;20.82;78.26;99201.38;5050529;28;20075;-64
2021/08/10 03:36:29;;;;;;;18.27;14.50;;;;;;;20.93;78.00;99197.34;5051638;28;20045;-63
2021/08/10 03:38:56;;;;;;;18.90;15.10;;;;;;;21.30;76.46;99192.56;5051219;28;20045;-63
2021/08/10 03:41:26;;;;;;;22.55;17.88;;;;;;;21.70;74.80;99193.28;5051454;28;20036;-64
2021/08/10 03:43:54;;;;;;;21.73;17.00;;;;;;;22.02;73.76;99193.16;5035020;28;20052;-64
2021/08/10 03:46:20;;;;;;;24.98;17.88;;;;;;;22.31;72.51;99192.53;5034807;28;20052;-63
2021/08/10 03:48:47;;;;;;;25.27;18.42;;;;;;;22.60;71.44;99189.13;5034454;28;20069;-63
2021/08/10 03:51:15;;;;;;;20.85;15.95;;;;;;;22.75;70.71;99191.31;5034909;28;20041;-64
2021/08/10 03:53:43;;;;;;;17.55;13.80;;;;;;;22.86;70.11;99189.84;5034665;28;20045;-64
2021/08/10 03:56:09;;;;;;;25.85;13.85;;;;;;;23.08;69.84;99191.53;5034742;28;20047;-64
2021/08/10 03:58:41;;;;;;;16.48;13.70;;;;;;;23.25;69.26;99190.66;5051296;28;20486;-64
2021/08/10 04:01:08;;;;;;;18.35;13.02;;;;;;;23.64;67.88;99196.00;5050981;28;20444;-63
2021/08/10 04:03:40;;;;;;;18.73;12.73;;;;;;;23.87;67.26;99200.00;5018421;28;20036;-64
2021/08/10 04:06:06;;;;;;;16.95;13.35;;;;;;;24.00;66.62;99190.00;5052055;28;20052;-62
2021/08/10 04:08:33;;;;;;;18.77;14.18;;;;;;;24.10;66.28;99183.41;5051140;28;20107;-64
2021/08/10 04:11:00;;;;;;;17.60;13.63;;;;;;;24.23;66.20;99183.13;5050873;28;20079;-64
2021/08/10 04:13:31;;;;;;;14.65;12.73;;;;;;;24.43;65.40;99200.47;5050412;28;20624;-64
2021/08/10 04:16:00;;;;;;;17.17;13.15;;;;;;;24.57;65.13;99189.34;5050660;28;20049;-64
2021/08/10 04:18:27;;;;;;;18.92;12.50;;;;;;;24.83;64.29;99189.06;5033629;28;20128;-64
2021/08/10 04:20:53;;;;;;;16.85;12.77;;;;;;;25.02;63.67;99176.88;5051822;28;20056;-63
2021/08/10 04:23:20;;;;;;;18.58;12.73;;;;;;;24.98;63.77;99178.69;5050853;28;20520;-65
2021/08/10 04:25:46;;;;;;;17.17;12.40;;;;;;;24.77;64.48;99178.78;5050766;28;20045;-64
2021/08/10 04:28:13;;;;;;;15.02;12.30;;;;;;;24.61;64.59;99179.41;5050379;28;20094;-64
2021/08/10 04:30:40;;;;;;;16.13;13.13;;;;;;;24.30;65.68;99182.59;5051466;28;20541;-64
2021/08/10 04:33:08;;;;;;;15.93;13.35;;;;;;;24.13;66.45;99180.03;5050648;28;20049;-64
2021/08/10 04:35:35;;;;;;;17.17;13.32;;;;;;;23.95;67.14;99179.41;5050580;28;20383;-64
2021/08/10 04:38:01;;;;;;;15.10;13.15;;;;;;;24.20;66.41;99183.78;5050214;28;20042;-64
2021/08/10 04:40:28;;;;;;;16.83;13.05;;;;;;;24.20;66.56;99180.28;5050181;28;20499;-65
2021/08/10 04:43:14;;;;;;;17.45;13.90;;;;;;;23.98;67.22;99167.91;5051103;28;20561;-65
2021/08/10 04:45:45;;;;;;;18.77;13.15;;;;;;;23.94;67.81;99173.19;5049539;28;20052;-65
2021/08/10 04:48:11;;;;;;;18.10;13.18;;;;;;;24.01;67.63;99162.63;5050077;28;20037;-64
2021/08/10 04:50:38;;;;;;;23.35;13.20;;;;;;;24.42;66.72;99168.28;5050314;28;20526;-64
2021/08/10 04:53:05;;;;;;;16.13;11.98;;;;;;;24.70;65.66;99168.47;5049924;28;20075;-64
2021/08/10 04:55:31;;;;;;;15.27;12.98;;;;;;;24.94;64.83;99170.41;5050247;28;20053;-63
2021/08/10 04:57:57;;;;;;;18.80;13.15;;;;;;;25.22;64.25;99161.66;5049847;28;20131;-63
2021/08/10 05:00:24;;;;;;;20.40;12.93;;;;;;;25.37;63.51;99172.59;5049945;28;20052;-63
2021/08/10 05:02:50;;;;;;;17.25;12.32;;;;;;;25.38;63.28;99171.47;5049782;28;20049;-62
2021/08/10 05:05:16;;;;;;;18.05;12.98;;;;;;;25.48;62.70;99174.84;5049915;28;20505;-63
2021/08/10 05:07:44;;;;;;;19.67;13.52;;;;;;;25.60;62.31;99162.03;5049435;28;20451;-63
2021/08/10 05:10:13;;;;;;;14.68;13.18;;;;;;;25.64;62.23;99166.78;5049853;28;20037;-64
2021/08/10 05:12:39;;;;;;;17.15;13.00;;;;;;;25.57;61.89;99176.28;5049681;28;20044;-64
2021/08/10 05:15:08;;;;;;;14.90;13.30;;;;;;;25.49;62.39;99169.06;5049959;28;20068;-65
2021/08/10 05:17:34;;;;;;;17.10;13.75;;;;;;;25.38;62.98;99167.94;5033014;28;20533;-63
2021/08/10 05:20:00;;;;;;;16.50;13.75;;;;;;;25.18;63.96;99163.44;5051063;28;20061;-62
2021/08/10 05:22:26;;;;;;;15.48;13.88;;;;;;;25.04;63.78;99155.63;5049739;28;20538;-64
2021/08/10 05:24:54;;;;;;;16.40;12.82;;;;;;;25.07;64.17;99158.44;5049230;28;20509;-64
2021/08/10 05:27:20;;;;;;;14.68;13.05;;;;;;;25.05;63.95;99157.22;5049733;28;20049;-62
2021/08/10 05:29:46;;;;;;;15.13;13.43;;;;;;;24.99;63.86;99156.63;5049662;28;20037;-63
2021/08/10 05:32:12;;;;;;;18.58;13.90;;;;;;;24.89;64.33;99157.88;5032626;28;20056;-63
2021/08/10 05:34:39;;;;;;;17.30;13.50;;;;;;;24.87;64.26;99153.94;5049555;28;20051;-64
2021/08/10 05:37:06;;;;;;;17.60;12.88;;;;;;;24.84;63.71;99158.09;5049555;28;20052;-62
2021/08/10 05:39:36;;;;;;;16.08;12.70;;;;;;;24.84;63.93;99152.69;5024540;28;20103;-63
2021/08/10 05:42:04;;;;;;;15.38;11.70;;;;;;;24.85;63.86;99153.47;5050177;28;20044;-64
2021/08/10 05:44:30;;;;;;;14.23;12.60;;;;;;;24.84;63.86;99149.19;5049767;28;20037;-63
2021/08/10 05:46:58;;;;;;;16.23;11.90;;;;;;;24.83;62.92;99145.69;5041961;28;20045;-65
2021/08/10 05:49:23;;;;;;;19.63;12.98;;;;;;;24.90;62.95;99140.47;5044553;28;20494;-63
2021/08/10 05:51:49;;;;;;;15.30;12.63;;;;;;;24.96;63.07;99145.69;5036628;28;20048;-63
2021/08/10 05:54:16;;;;;;;18.25;13.30;;;;;;;24.97;64.13;99145.34;5030857;28;20045;-65
2021/08/10 05:56:47;;;;;;;17.35;12.52;;;;;;;25.04;64.42;99153.72;5049420;28;20103;-65
2021/08/10 05:59:13;;;;;;;16.38;12.80;;;;;;;25.10;64.36;99152.34;5042289;28;20124;-62
2021/08/10 06:01:42;;;;;;;16.52;12.90;;;;;;;25.27;64.15;99153.28;5041197;28;20506;-63
2021/08/10 06:04:09;;;;;;;15.45;12.75;;;;;;;25.57;63.35;99151.06;5051832;28;20094;-62
2021/08/10 06:06:36;;;;;;;18.33;12.10;;;;;;;25.85;63.38;99148.41;5051559;28;20053;-62
2021/08/10 06:09:04;;;;;;;16.27;12.90;;;;;;;26.03;61.41;99146.19;5034301;28;20056;-62
2021/08/10 06:11:30;;;;;;;16.90;12.43;;;;;;;26.10;61.12;99137.47;5052134;28;20453;-61
2021/08/10 06:13:57;;;;;;;16.13;12.20;;;;;;;26.05;60.47;99142.00;5051511;28;20451;-61
2021/08/10 06:16:24;;;;;;;15.85;12.52;;;;;;;26.05;60.38;99141.19;5053089;28;20064;-63
2021/08/10 06:18:52;;;;;;;16.15;12.80;;;;;;;26.11;59.77;99136.31;5052553;28;20044;-61
2021/08/10 06:21:22;;;;;;;16.40;12.25;;;;;;;26.21;59.13;99136.59;5051440;28;20065;-62
2021/08/10 06:23:48;;;;;;;19.25;12.65;;;;;;;26.42;59.04;99136.38;5051244;28;20457;-62
2021/08/10 06:26:14;;;;;;;18.48;12.82;;;;;;;26.65;58.67;99136.59;5051854;28;20056;-62
2021/08/10 06:28:44;;;;;;;17.30;13.27;;;;;;;26.89;57.86;99138.34;5052054;28;20063;-65
2021/08/10 06:31:10;;;;;;;17.17;13.13;;;;;;;26.96;57.34;99133.06;5050209;28;20045;-64
2021/08/10 06:33:37;;;;;;;18.58;12.73;;;;;;;27.23;56.32;99136.03;5049286;28;20083;-64
2021/08/10 06:36:03;;;;;;;16.80;12.25;;;;;;;27.24;54.97;99139.53;5051781;28;20560;-63
2021/08/10 06:38:32;;;;;;;17.92;12.60;;;;;;;27.10;56.12;99135.31;5051042;28;20048;-64
2021/08/10 06:40:58;;;;;;;14.70;11.18;;;;;;;27.11;54.70;99138.81;5050735;28;20053;-63
2021/08/10 06:43:24;;;;;;;15.23;11.50;;;;;;;27.03;56.16;99135.16;5051376;28;20565;-63
2021/08/10 06:46:09;;;;;;;15.18;12.57;;;;;;;27.14;57.58;99136.19;5030088;28;20475;-64
2021/08/10 06:48:35;;;;;;;18.35;12.27;;;;;;;27.21;57.12;99132.88;5012350;28;20052;-66
2021/08/10 06:51:01;;;;;;;14.73;10.40;;;;;;;27.14;52.02;99136.19;5029500;28;20084;-63
2021/08/10 06:53:29;;;;;;;13.68;11.32;;;;;;;27.03;53.13;99146.06;5013155;28;20045;-64
2021/08/10 06:55:55;;;;;;;15.73;10.98;;;;;;;26.80;53.54;99150.53;5029313;28;20403;-65
2021/08/10 06:58:21;;;;;;;13.05;9.63;;;;;;;26.60;51.81;99142.28;5029312;28;20045;-62
2021/08/10 07:00:47;;;;;;;12.65;10.30;;;;;;;26.44;52.42;99146.88;5030196;28;20229;-63
2021/08/10 07:03:14;;;;;;;11.13;9.88;;;;;;;26.35;52.93;99138.09;5012579;28;20048;-63
2021/08/10 07:05:41;;;;;;;20.33;11.13;;;;;;;26.30;52.73;99141.88;5013546;28;20139;-66
2021/08/10 07:08:07;;;;;;;15.13;10.70;;;;;;;26.30;54.35;99133.72;5011056;28;20499;-63
2021/08/10 07:10:38;;;;;;;13.13;11.38;;;;;;;26.45;54.40;99135.69;5009512;28;20053;-59
2021/08/10 07:13:04;;;;;;;14.75;10.18;;;;;;;26.49;52.45;99139.28;5013340;28;20049;-61
2021/08/10 07:15:32;;;;;;;17.00;10.50;;;;;;;26.72;51.09;99147.63;5028727;28;20046;-64
2021/08/10 07:18:03;;;;;;;11.85;10.40;;;;;;;26.89;51.23;99149.22;4995803;28;20050;-65
2021/08/10 07:20:30;;;;;;;17.50;10.63;;;;;;;26.90;51.42;99144.56;5028441;28;20492;-66
2021/08/10 07:22:56;;;;;;;14.68;10.20;;;;;;;26.84;52.39;99148.69;5019288;28;20107;-67
2021/08/10 07:25:32;;;;;;;17.10;10.38;;;;;;;26.78;51.05;99144.66;5050285;28;20049;-65
2021/08/10 07:27:59;;;;;;;14.93;10.40;;;;;;;26.83;49.65;99141.69;5050120;28;20091;-67
2021/08/10 07:30:25;;;;;;;12.27;10.02;;;;;;;26.99;50.05;99145.16;5050868;28;20045;-67
2021/08/10 07:32:55;;;;;;;17.25;10.57;;;;;;;27.01;50.17;99144.81;5049416;28;20417;-66
2021/08/10 07:35:22;;;;;;;16.50;10.05;;;;;;;27.00;49.74;99145.94;5050303;28;20044;-65
2021/08/10 07:37:48;;;;;;;19.98;11.13;;;;;;;27.07;50.41;99143.41;5051299;28;20131;-66
2021/08/10 07:40:14;;;;;;;20.90;10.50;;;;;;;27.29;49.58;99145.47;5049572;28;20052;-66
2021/08/10 07:42:42;;;;;;;16.48;10.77;;;;;;;27.51;48.46;99137.81;5049832;28;20139;-66
2021/08/10 07:45:09;;;;;;;16.83;10.45;;;;;;;27.64;48.55;99142.72;5050173;28;20140;-66
2021/08/10 07:47:36;;;;;;;11.95;10.05;;;;;;;27.68;47.98;99131.94;5048366;28;20546;-66
2021/08/10 07:50:03;;;;;;;16.13;10.00;;;;;;;27.65;48.59;99140.81;5050327;28;20127;-65
2021/08/10 07:52:29;;;;;;;12.65;9.30;;;;;;;27.64;47.38;99129.13;5049324;28;20049;-66
2021/08/10 07:54:55;;;;;;;11.85;9.40;;;;;;;27.54;48.13;99128.91;5048946;28;20453;-65
2021/08/10 07:57:20;;;;;;;12.85;10.27;;;;;;;27.52;48.69;99134.72;5050045;28;20502;-65
2021/08/10 07:59:46;;;;;;;16.70;10.57;;;;;;;27.56;48.66;99119.25;5049936;28;20052;-66
2021/08/10 08:02:14;;;;;;;15.60;10.60;;;;;;;27.61;47.79;99124.41;5049036;28;20045;-67
2021/08/10 08:04:40;;;;;;;13.82;9.90;;;;;;;27.69;48.86;99119.91;5050017;28;20052;-65
2021/08/10 08:07:06;;;;;;;17.70;10.93;;;;;;;27.69;49.41;99128.06;5051165;28;20052;-67
2021/08/10 08:09:32;;;;;;;14.07;11.13;;;;;;;27.71;48.71;99119.53;5049664;28;20041;-66
2021/08/10 08:11:58;;;;;;;13.95;10.40;;;;;;;27.64;48.82;99118.22;5049724;28;20053;-65
2021/08/10 08:14:23;;;;;;;15.40;10.38;;;;;;;27.50;48.74;99117.16;5049158;28;20452;-65
2021/08/10 08:16:49;;;;;;;14.85;10.93;;;;;;;27.50;48.85;99114.44;5048496;28;20483;-66
2021/08/10 08:19:16;;;;;;;15.65;10.23;;;;;;;27.58;47.41;99110.72;5049214;28;20144;-65
2021/08/10 08:21:42;;;;;;;19.30;11.57;;;;;;;27.63;47.37;99105.00;5049565;28;20079;-66
2021/08/10 08:24:08;;;;;;;15.07;10.05;;;;;;;27.75;47.94;99107.56;5049021;28;20044;-65
2021/08/10 08:26:34;;;;;;;13.32;10.68;;;;;;;27.87;47.60;99111.31;5049179;28;20048;-67
2021/08/10 08:29:01;;;;;;;16.05;10.38;;;;;;;27.83;47.21;99117.50;5049411;28;20048;-66
2021/08/10 08:31:27;;;;;;;14.20;10.82;;;;;;;27.85;48.00;99109.75;5048390;28;20048;-66
2021/08/10 08:34:03;;;;;;;13.30;10.75;;;;;;;27.91;47.92;99120.34;5049106;28;20144;-66
2021/08/10 08:36:29;;;;;;;20.17;12.63;;;;;;;27.99;48.24;99114.66;5048646;28;20400;-66
2021/08/10 08:38:56;;;;;;;21.42;10.98;;;;;;;27.98;47.49;99106.88;5048097;28;20040;-66
2021/08/10 08:41:23;;;;;;;14.65;10.30;;;;;;;28.02;47.96;99107.72;5048978;28;20037;-65
2021/08/10 08:43:50;;;;;;;17.00;10.35;;;;;;;28.01;47.23;99106.94;5049185;28;20051;-66
2021/08/10 08:46:20;;;;;;;13.00;10.05;;;;;;;28.05;46.28;99105.03;5049334;28;20048;-66
2021/08/10 08:48:46;;;;;;;16.88;11.18;;;;;;;28.06;46.78;99095.75;5049401;28;20180;-66
2021/08/10 08:51:17;;;;;;;18.92;10.73;;;;;;;27.98;46.34;99093.25;5048466;28;20037;-66
2021/08/10 08:53:51;;;;;;;11.68;10.43;;;;;;;28.02;46.83;99089.44;5047777;28;20037;-65
2021/08/10 08:56:22;;;;;;;14.40;9.90;;;;;;;28.07;46.49;99086.41;5048191;28;20510;-66
2021/08/10 08:58:49;;;;;;;13.65;10.35;;;;;;;28.12;46.20;99088.06;5049883;28;20055;-65
2021/08/10 09:01:15;;;;;;;12.23;10.07;;;;;;;28.22;45.89;99087.44;5048473;28;20548;-66
2021/08/10 09:03:41;;;;;;;18.23;10.30;;;;;;;28.24;45.72;99087.88;5032453;28;20720;-65
2021/08/10 09:06:07;;;;;;;17.38;10.27;;;;;;;28.30;45.24;99080.19;5032056;28;20127;-66
2021/08/10 09:08:38;;;;;;;12.48;10.50;;;;;;;28.44;46.18;99088.66;5048388;28;20405;-65
2021/08/10 09:11:16;;;;;;;16.55;10.15;;;;;;;28.51;45.09;99080.56;5048383;28;20076;-66
2021/08/10 09:13:55;;;;;;;13.25;10.60;;;;;;;28.60;44.96;99079.53;5049804;28;20048;-65
2021/08/10 09:16:21;;;;;;;;;;;;;;;28.56;44.81;99076.75;5047841;28;20092;-66
2021/08/10 09:18:48;;;;;;;25.15;11.60;;;;;;;28.51;44.10;99079.78;5046858;28;20072;-66
2021/08/10 09:21:21;;;;;;;16.65;10.90;;;;;;;28.48;44.51;99075.84;5048100;28;20065;-65
2021/08/10 09:24:00;;;;;;;15.73;10.85;;;;;;;28.50;45.05;99075.47;5048133;28;20565;-65
2021/08/10 09:26:30;;;;;;;18.17;11.63;;;;;;;28.50;45.24;99079.00;5047355;28;20045;-66
2021/08/10 09:28:58;;;;;;;17.55;11.82;;;;;;;28.46;45.82;99071.91;5048263;28;20063;-66
2021/08/10 09:31:38;;;;;;;18.05;11.20;;;;;;;28.52;45.54;99070.44;5047087;28;20060;-66
2021/08/10 09:34:08;;;;;;;18.10;12.23;;;;;;;28.52;46.55;99075.91;5052152;28;20041;-66
2021/08/10 09:36:35;;;;;;;17.10;11.98;;;;;;;28.57;46.45;99072.88;5051052;28;20049;-63
2021/08/10 09:39:03;;;;;;;19.38;12.35;;;;;;;28.52;46.16;99065.78;5052069;28;20048;-65
2021/08/10 09:41:29;;;;;;;18.13;12.40;;;;;;;28.57;45.80;99061.97;5050859;28;20048;-66
2021/08/10 09:44:08;;;;;;;21.35;12.80;;;;;;;28.65;46.29;99063.66;5052911;28;20036;-66
2021/08/10 09:46:37;;;;;;;21.02;12.68;;;;;;;28.74;45.39;99066.13;5052882;28;20131;-66
2021/08/10 09:49:06;;;;;;;19.55;11.52;;;;;;;28.71;44.79;99066.88;5053109;28;20045;-63
2021/08/10 09:51:32;;;;;;;18.13;11.02;;;;;;;28.72;44.62;99066.47;5053178;28;20053;-66
2021/08/10 09:53:59;;;;;;;16.73;11.80;;;;;;;28.63;44.87;99073.34;5051351;28;20431;-66
2021/08/10 09:59:38;;;;;;;18.67;12.32;;;;;;;28.65;45.23;99074.56;5051988;28;20128;-65
2021/08/10 10:02:16;;;;;;;18.63;12.77;;;;;;;28.58;45.21;99069.00;5051045;28;20087;-67
2021/08/10 10:04:48;;;;;;;20.20;12.00;;;;;;;28.71;44.33;99062.19;5051938;28;20045;-67
2021/08/10 10:07:14;;;;;;;17.20;11.27;;;;;;;28.84;44.73;99070.16;5050435;28;20052;-64
2021/08/10 10:09:55;;;;;;;17.95;12.00;;;;;;;28.98;44.22;99075.84;5037664;28;20189;-65
2021/08/10 10:12:24;;;;;;;22.60;12.70;;;;;;;29.11;44.74;99070.97;5035318;28;20120;-65
2021/08/10 10:14:55;;;;;;;24.33;12.95;;;;;;;29.20;44.42;99071.47;5034813;28;20143;-66
2021/08/10 10:17:22;;;;;;;23.77;13.38;;;;;;;29.24;44.59;99071.50;5053071;28;20147;-64
2021/08/10 10:19:49;;;;;;;18.35;12.70;;;;;;;29.30;44.61;99080.97;5051915;28;20107;-65
2021/08/10 10:22:22;;;;;;;21.45;12.82;;;;;;;29.30;44.41;99075.50;5050955;28;20056;-66
2021/08/10 10:25:06;;;;;;;19.65;11.95;;;;;;;29.27;44.34;99078.97;5053198;28;20542;-65
2021/08/10 10:27:36;;;;;;;19.02;11.32;;;;;;;29.15;43.84;99079.97;5052368;28;20506;-64
2021/08/10 10:30:03;;;;;;;18.02;11.30;;;;;;;28.99;43.66;99078.16;5051966;28;20041;-67
2021/08/10 10:32:29;;;;;;;21.08;11.40;;;;;;;28.92;43.70;99071.84;5051996;28;20045;-65
2021/08/10 10:34:54;;;;;;;19.60;11.90;;;;;;;28.95;44.56;99080.06;5053074;28;20063;-65
2021/08/10 10:37:25;;;;;;;18.15;11.40;;;;;;;28.98;44.13;99075.84;5052480;28;20037;-65
2021/08/10 10:39:57;;;;;;;25.48;10.68;;;;;;;28.99;43.51;99080.91;5034925;28;20474;-66
2021/08/10 10:42:23;;;;;;;18.00;10.88;;;;;;;29.02;43.37;99084.06;5051505;28;20434;-66
2021/08/10 10:44:51;;;;;;;15.75;9.70;;;;;;;29.01;42.79;99079.75;5052188;28;20115;-65
2021/08/10 10:47:23;;;;;;;17.23;10.00;;;;;;;29.01;43.18;99087.94;5052208;28;20044;-66
2021/08/10 10:49:52;;;;;;;17.73;10.18;;;;;;;29.03;42.97;99077.47;5052829;28;20134;-65
2021/08/10 10:52:17;;;;;;;17.30;10.88;;;;;;;29.08;43.01;99069.75;5051132;28;20051;-65
2021/08/10 10:54:45;;;;;;;18.55;10.80;;;;;;;29.03;42.75;99078.25;5050917;28;20037;-66
2021/08/10 10:57:28;;;;;;;17.88;10.40;;;;;;;28.98;42.90;99084.78;5050547;28;20476;-66
2021/08/10 11:00:15;;;;;;;20.67;10.90;;;;;;;29.15;43.15;99079.97;5051207;28;20029;-65
2021/08/10 11:02:42;;;;;;;15.32;10.13;;;;;;;29.36;42.40;99079.50;5051026;28;20057;-65
2021/08/10 11:05:17;;;;;;;20.48;10.02;;;;;;;29.47;42.20;99077.66;5052510;28;20053;-65
2021/08/10 11:07:47;;;;;;;17.13;10.00;;;;;;;29.51;41.56;99078.50;5051995;28;20064;-65
2021/08/10 11:10:41;;;;;;;16.27;10.50;;;;;;;29.51;41.49;99085.91;5052304;28;20226;-65
2021/08/10 11:13:33;;;;;;;18.52;10.10;;;;;;;29.48;41.48;99087.44;5052351;28;20045;-65
2021/08/10 11:15:59;;;;;;;22.50;11.45;;;;;;;29.34;42.93;99089.97;5052064;28;20045;-65
2021/08/10 11:18:27;;;;;;;15.20;11.75;;;;;;;29.36;43.20;99085.72;5051786;28;20105;-65
2021/08/10 11:20:58;;;;;;;19.08;12.35;;;;;;;29.42;43.12;99086.19;5051416;28;20155;-66
2021/08/10 11:23:25;;;;;;;27.27;12.65;;;;;;;29.51;43.00;99089.44;5050737;28;20053;-64
2021/08/10 11:26:13;;;;;;;15.13;11.27;;;;;;;29.43;43.28;99094.00;5051710;28;20418;-65
2021/08/10 11:28:46;;;;;;;16.75;12.25;;;;;;;29.35;43.69;99099.75;5048412;28;20502;-64